Minneapolis, Minnesota
Current Conditions -  °F | °C
As of 5:53 PM on Saturday 20 Dec 2014 (Local Time) from KMSP Reporting Station
Overcast Overcast  
Wind Chill: 22°   Ceiling: 1400
Heat Index: 31°   Visibility: 9mi
Dew Point: 26°   Wind: 12mph
Humidity: 82%   Direction: 160°SSE
Pressure: 30.12"   Gusts: NA
Location:  44.98°N, 93.26°W
Report Text: KMSP 202353Z 16010KT 9SM OVC014 M01/M03 A3012 RMK AO2 SLP210 T10061033 10000 21006 58001
Loading
Personal Weather Stations






























Interactive Weather Map New forecast layout! Learn more

10-Day Weather Forecast

Advertisements
Track Severe Weather on mobile